sensor_id;sensor_type;location;lat;lon;timestamp;P1;durP1;ratioP1;P2;durP2;ratioP2
76393;SDS011;65216;51.090;-115.352;2023-02-28T00:01:31;8.50;;;1.30;;
76393;SDS011;65216;51.090;-115.352;2023-02-28T00:03:59;14.20;;;1.30;;
76393;SDS011;65216;51.090;-115.352;2023-02-28T00:06:27;15.40;;;1.70;;
76393;SDS011;65216;51.090;-115.352;2023-02-28T00:08:57;13.10;;;1.70;;
76393;SDS011;65216;51.090;-115.352;2023-02-28T00:11:25;17.80;;;1.70;;
76393;SDS011;65216;51.090;-115.352;2023-02-28T00:13:53;25.50;;;2.30;;
76393;SDS011;65216;51.090;-115.352;2023-02-28T00:16:22;21.90;;;2.10;;
76393;SDS011;65216;51.090;-115.352;2023-02-28T00:18:49;19.60;;;1.70;;
76393;SDS011;65216;51.090;-115.352;2023-02-28T00:21:18;21.70;;;1.90;;
76393;SDS011;65216;51.090;-115.352;2023-02-28T00:23:46;13.20;;;1.50;;
76393;SDS011;65216;51.090;-115.352;2023-02-28T00:26:16;19.30;;;2.10;;
76393;SDS011;65216;51.090;-115.352;2023-02-28T00:28:44;16.20;;;2.00;;
76393;SDS011;65216;51.090;-115.352;2023-02-28T00:31:11;18.50;;;1.70;;
76393;SDS011;65216;51.090;-115.352;2023-02-28T00:33:39;17.10;;;2.40;;
76393;SDS011;65216;51.090;-115.352;2023-02-28T00:36:08;15.80;;;1.80;;
76393;SDS011;65216;51.090;-115.352;2023-02-28T00:38:38;18.80;;;1.80;;
76393;SDS011;65216;51.090;-115.352;2023-02-28T00:41:06;22.30;;;2.10;;
76393;SDS011;65216;51.090;-115.352;2023-02-28T00:43:38;15.10;;;1.80;;
76393;SDS011;65216;51.090;-115.352;2023-02-28T00:46:06;16.90;;;1.80;;
76393;SDS011;65216;51.090;-115.352;2023-02-28T00:48:34;19.40;;;1.90;;
76393;SDS011;65216;51.090;-115.352;2023-02-28T00:51:05;19.30;;;1.80;;
76393;SDS011;65216;51.090;-115.352;2023-02-28T00:53:33;21.90;;;2.00;;
76393;SDS011;65216;51.090;-115.352;2023-02-28T00:56:03;30.60;;;3.00;;
76393;SDS011;65216;51.090;-115.352;2023-02-28T00:58:31;18.00;;;1.80;;
76393;SDS011;65216;51.090;-115.352;2023-02-28T01:00:58;27.40;;;2.40;;
76393;SDS011;65216;51.090;-115.352;2023-02-28T01:03:25;19.10;;;2.10;;
76393;SDS011;65216;51.090;-115.352;2023-02-28T01:05:53;22.00;;;2.10;;
76393;SDS011;65216;51.090;-115.352;2023-02-28T01:08:20;22.10;;;2.10;;
76393;SDS011;65216;51.090;-115.352;2023-02-28T01:10:48;26.30;;;2.30;;
76393;SDS011;65216;51.090;-115.352;2023-02-28T01:13:16;18.70;;;2.30;;
76393;SDS011;65216;51.090;-115.352;2023-02-28T01:15:50;21.00;;;2.20;;
76393;SDS011;65216;51.090;-115.352;2023-02-28T01:18:21;20.70;;;2.30;;
76393;SDS011;65216;51.090;-115.352;2023-02-28T01:20:54;24.20;;;2.30;;
76393;SDS011;65216;51.090;-115.352;2023-02-28T01:23:22;18.50;;;2.10;;
76393;SDS011;65216;51.090;-115.352;2023-02-28T01:25:50;23.80;;;2.30;;
76393;SDS011;65216;51.090;-115.352;2023-02-28T01:28:21;20.30;;;2.20;;
76393;SDS011;65216;51.090;-115.352;2023-02-28T01:30:52;20.20;;;2.20;;
76393;SDS011;65216;51.090;-115.352;2023-02-28T01:33:21;21.90;;;1.80;;
76393;SDS011;65216;51.090;-115.352;2023-02-28T01:35:49;20.30;;;2.20;;
76393;SDS011;65216;51.090;-115.352;2023-02-28T01:38:16;20.90;;;2.30;;
76393;SDS011;65216;51.090;-115.352;2023-02-28T01:40:43;18.80;;;2.40;;
76393;SDS011;65216;51.090;-115.352;2023-02-28T01:45:55;26.30;;;2.30;;
76393;SDS011;65216;51.090;-115.352;2023-02-28T01:48:29;16.20;;;2.10;;
76393;SDS011;65216;51.090;-115.352;2023-02-28T01:51:05;17.00;;;1.90;;
76393;SDS011;65216;51.090;-115.352;2023-02-28T01:53:42;22.70;;;2.10;;
76393;SDS011;65216;51.090;-115.352;2023-02-28T01:56:20;18.80;;;2.70;;
76393;SDS011;65216;51.090;-115.352;2023-02-28T01:58:53;20.00;;;2.50;;
76393;SDS011;65216;51.090;-115.352;2023-02-28T02:01:22;20.80;;;2.80;;
76393;SDS011;65216;51.090;-115.352;2023-02-28T02:04:00;18.10;;;2.30;;
76393;SDS011;65216;51.090;-115.352;2023-02-28T02:06:42;14.30;;;1.90;;
76393;SDS011;65216;51.090;-115.352;2023-02-28T02:09:15;22.60;;;2.20;;
76393;SDS011;65216;51.090;-115.352;2023-02-28T02:11:43;25.70;;;2.20;;
76393;SDS011;65216;51.090;-115.352;2023-02-28T02:14:38;18.30;;;2.40;;
76393;SDS011;65216;51.090;-115.352;2023-02-28T02:17:38;26.50;;;2.30;;
76393;SDS011;65216;51.090;-115.352;2023-02-28T02:31:58;28.10;;;2.60;;
76393;SDS011;65216;51.090;-115.352;2023-02-28T02:41:39;27.10;;;3.10;;
76393;SDS011;65216;51.090;-115.352;2023-02-28T02:44:24;25.40;;;2.80;;
76393;SDS011;65216;51.090;-115.352;2023-02-28T02:47:19;18.90;;;2.20;;
76393;SDS011;65216;51.090;-115.352;2023-02-28T02:49:55;24.70;;;2.50;;
76393;SDS011;65216;51.090;-115.352;2023-02-28T02:52:35;17.10;;;2.20;;
76393;SDS011;65216;51.090;-115.352;2023-02-28T02:55:07;17.00;;;2.10;;
76393;SDS011;65216;51.090;-115.352;2023-02-28T02:58:02;25.40;;;2.50;;
76393;SDS011;65216;51.090;-115.352;2023-02-28T03:00:43;19.00;;;2.10;;
76393;SDS011;65216;51.090;-115.352;2023-02-28T03:03:20;23.30;;;2.50;;
76393;SDS011;65216;51.090;-115.352;2023-02-28T03:06:01;17.60;;;2.20;;
76393;SDS011;65216;51.090;-115.352;2023-02-28T03:08:34;20.60;;;2.30;;
76393;SDS011;65216;51.090;-115.352;2023-02-28T03:11:06;25.10;;;3.00;;
76393;SDS011;65216;51.090;-115.352;2023-02-28T03:16:35;15.90;;;2.40;;
76393;SDS011;65216;51.090;-115.352;2023-02-28T03:19:29;31.30;;;2.60;;
76393;SDS011;65216;51.090;-115.352;2023-02-28T03:28:31;12.40;;;2.20;;
76393;SDS011;65216;51.090;-115.352;2023-02-28T03:34:24;17.70;;;2.70;;
76393;SDS011;65216;51.090;-115.352;2023-02-28T03:37:02;22.60;;;2.80;;
76393;SDS011;65216;51.090;-115.352;2023-02-28T03:39:53;19.10;;;2.20;;
76393;SDS011;65216;51.090;-115.352;2023-02-28T03:42:31;18.40;;;2.80;;
76393;SDS011;65216;51.090;-115.352;2023-02-28T03:45:18;23.40;;;2.80;;
76393;SDS011;65216;51.090;-115.352;2023-02-28T03:50:39;21.00;;;3.50;;
76393;SDS011;65216;51.090;-115.352;2023-02-28T03:53:47;23.70;;;2.40;;
76393;SDS011;65216;51.090;-115.352;2023-02-28T03:56:18;15.80;;;2.40;;
76393;SDS011;65216;51.090;-115.352;2023-02-28T03:59:07;16.20;;;2.20;;
76393;SDS011;65216;51.090;-115.352;2023-02-28T04:01:57;16.70;;;2.10;;
76393;SDS011;65216;51.090;-115.352;2023-02-28T04:04:25;12.60;;;2.00;;
76393;SDS011;65216;51.090;-115.352;2023-02-28T04:06:53;16.30;;;2.00;;
76393;SDS011;65216;51.090;-115.352;2023-02-28T04:09:31;9.70;;;2.00;;
76393;SDS011;65216;51.090;-115.352;2023-02-28T04:12:02;21.70;;;2.20;;
76393;SDS011;65216;51.090;-115.352;2023-02-28T04:14:30;15.60;;;2.20;;
76393;SDS011;65216;51.090;-115.352;2023-02-28T04:16:57;14.90;;;1.70;;
76393;SDS011;65216;51.090;-115.352;2023-02-28T04:19:27;20.70;;;2.10;;
76393;SDS011;65216;51.090;-115.352;2023-02-28T04:21:55;18.70;;;1.80;;
76393;SDS011;65216;51.090;-115.352;2023-02-28T04:24:25;12.00;;;1.90;;
76393;SDS011;65216;51.090;-115.352;2023-02-28T04:26:58;14.70;;;2.00;;
76393;SDS011;65216;51.090;-115.352;2023-02-28T04:29:28;14.90;;;2.10;;
76393;SDS011;65216;51.090;-115.352;2023-02-28T04:32:03;14.10;;;1.50;;
76393;SDS011;65216;51.090;-115.352;2023-02-28T04:34:32;13.40;;;1.70;;
76393;SDS011;65216;51.090;-115.352;2023-02-28T04:36:59;8.40;;;1.80;;
76393;SDS011;65216;51.090;-115.352;2023-02-28T04:39:27;13.90;;;1.80;;
76393;SDS011;65216;51.090;-115.352;2023-02-28T04:41:54;12.00;;;1.50;;
76393;SDS011;65216;51.090;-115.352;2023-02-28T04:44:26;8.80;;;1.50;;
76393;SDS011;65216;51.090;-115.352;2023-02-28T04:46:53;8.60;;;1.50;;
76393;SDS011;65216;51.090;-115.352;2023-02-28T04:49:21;9.70;;;1.30;;
76393;SDS011;65216;51.090;-115.352;2023-02-28T04:52:24;8.70;;;1.50;;
76393;SDS011;65216;51.090;-115.352;2023-02-28T04:54:55;9.60;;;1.60;;
76393;SDS011;65216;51.090;-115.352;2023-02-28T04:57:22;9.00;;;1.30;;
76393;SDS011;65216;51.090;-115.352;2023-02-28T04:59:53;4.70;;;1.20;;
76393;SDS011;65216;51.090;-115.352;2023-02-28T05:02:21;7.80;;;1.30;;
76393;SDS011;65216;51.090;-115.352;2023-02-28T05:04:54;5.00;;;1.40;;
76393;SDS011;65216;51.090;-115.352;2023-02-28T05:07:24;3.20;;;1.20;;
76393;SDS011;65216;51.090;-115.352;2023-02-28T05:09:51;5.10;;;1.10;;
76393;SDS011;65216;51.090;-115.352;2023-02-28T05:12:21;5.20;;;1.10;;
76393;SDS011;65216;51.090;-115.352;2023-02-28T05:14:49;7.50;;;1.20;;
76393;SDS011;65216;51.090;-115.352;2023-02-28T05:17:19;4.50;;;1.00;;
76393;SDS011;65216;51.090;-115.352;2023-02-28T05:19:46;5.00;;;1.20;;
76393;SDS011;65216;51.090;-115.352;2023-02-28T05:22:16;6.20;;;0.90;;
76393;SDS011;65216;51.090;-115.352;2023-02-28T05:24:43;6.70;;;1.10;;
76393;SDS011;65216;51.090;-115.352;2023-02-28T05:27:13;7.60;;;1.10;;
76393;SDS011;65216;51.090;-115.352;2023-02-28T05:29:41;3.70;;;1.00;;
76393;SDS011;65216;51.090;-115.352;2023-02-28T05:32:13;4.10;;;1.00;;
76393;SDS011;65216;51.090;-115.352;2023-02-28T05:34:41;2.40;;;0.80;;
76393;SDS011;65216;51.090;-115.352;2023-02-28T05:37:18;3.80;;;1.10;;
76393;SDS011;65216;51.090;-115.352;2023-02-28T05:39:46;1.90;;;0.80;;
76393;SDS011;65216;51.090;-115.352;2023-02-28T05:42:16;4.30;;;1.00;;
76393;SDS011;65216;51.090;-115.352;2023-02-28T05:44:43;3.70;;;0.90;;
76393;SDS011;65216;51.090;-115.352;2023-02-28T05:47:11;4.70;;;0.90;;
76393;SDS011;65216;51.090;-115.352;2023-02-28T05:49:45;3.40;;;1.10;;
76393;SDS011;65216;51.090;-115.352;2023-02-28T05:52:12;2.90;;;0.90;;
76393;SDS011;65216;51.090;-115.352;2023-02-28T05:54:39;3.30;;;0.90;;
76393;SDS011;65216;51.090;-115.352;2023-02-28T05:57:10;2.20;;;0.80;;
76393;SDS011;65216;51.090;-115.352;2023-02-28T05:59:38;2.90;;;1.00;;
76393;SDS011;65216;51.090;-115.352;2023-02-28T06:02:13;5.00;;;0.70;;
76393;SDS011;65216;51.090;-115.352;2023-02-28T06:04:44;3.10;;;0.90;;
76393;SDS011;65216;51.090;-115.352;2023-02-28T06:07:15;6.10;;;0.90;;
76393;SDS011;65216;51.090;-115.352;2023-02-28T06:09:46;6.10;;;1.10;;
76393;SDS011;65216;51.090;-115.352;2023-02-28T06:12:14;7.70;;;1.10;;
76393;SDS011;65216;51.090;-115.352;2023-02-28T06:14:41;5.40;;;1.00;;
76393;SDS011;65216;51.090;-115.352;2023-02-28T06:17:09;5.10;;;0.90;;
76393;SDS011;65216;51.090;-115.352;2023-02-28T06:19:39;4.20;;;0.90;;
76393;SDS011;65216;51.090;-115.352;2023-02-28T06:22:10;6.30;;;1.00;;
76393;SDS011;65216;51.090;-115.352;2023-02-28T06:24:37;4.70;;;1.10;;
76393;SDS011;65216;51.090;-115.352;2023-02-28T06:27:04;4.30;;;0.90;;
76393;SDS011;65216;51.090;-115.352;2023-02-28T06:29:33;5.80;;;1.00;;
76393;SDS011;65216;51.090;-115.352;2023-02-28T06:32:01;5.80;;;1.10;;
76393;SDS011;65216;51.090;-115.352;2023-02-28T06:34:29;3.10;;;1.10;;
76393;SDS011;65216;51.090;-115.352;2023-02-28T06:36:56;5.20;;;1.10;;
76393;SDS011;65216;51.090;-115.352;2023-02-28T06:39:29;2.90;;;1.20;;
76393;SDS011;65216;51.090;-115.352;2023-02-28T06:41:56;3.80;;;1.10;;
76393;SDS011;65216;51.090;-115.352;2023-02-28T06:44:24;4.70;;;1.20;;
76393;SDS011;65216;51.090;-115.352;2023-02-28T06:46:51;5.40;;;1.00;;
76393;SDS011;65216;51.090;-115.352;2023-02-28T06:49:19;4.70;;;1.10;;
76393;SDS011;65216;51.090;-115.352;2023-02-28T06:51:46;4.40;;;1.30;;
76393;SDS011;65216;51.090;-115.352;2023-02-28T06:54:13;2.70;;;1.00;;
76393;SDS011;65216;51.090;-115.352;2023-02-28T06:56:41;2.40;;;0.90;;
76393;SDS011;65216;51.090;-115.352;2023-02-28T06:59:22;3.90;;;1.10;;
76393;SDS011;65216;51.090;-115.352;2023-02-28T07:01:50;2.90;;;0.90;;
76393;SDS011;65216;51.090;-115.352;2023-02-28T07:04:18;2.30;;;0.80;;
76393;SDS011;65216;51.090;-115.352;2023-02-28T07:06:51;3.40;;;1.20;;
76393;SDS011;65216;51.090;-115.352;2023-02-28T07:09:29;3.90;;;0.90;;
76393;SDS011;65216;51.090;-115.352;2023-02-28T07:11:59;3.30;;;1.10;;
76393;SDS011;65216;51.090;-115.352;2023-02-28T07:14:28;3.90;;;1.20;;
76393;SDS011;65216;51.090;-115.352;2023-02-28T07:16:57;3.50;;;1.00;;
76393;SDS011;65216;51.090;-115.352;2023-02-28T07:19:24;6.60;;;1.00;;
76393;SDS011;65216;51.090;-115.352;2023-02-28T07:22:00;2.60;;;1.00;;
76393;SDS011;65216;51.090;-115.352;2023-02-28T07:24:30;3.60;;;1.10;;
76393;SDS011;65216;51.090;-115.352;2023-02-28T07:27:00;3.10;;;1.00;;
76393;SDS011;65216;51.090;-115.352;2023-02-28T07:29:30;2.60;;;0.60;;
76393;SDS011;65216;51.090;-115.352;2023-02-28T07:32:04;4.90;;;0.90;;
76393;SDS011;65216;51.090;-115.352;2023-02-28T07:34:38;3.70;;;0.80;;
76393;SDS011;65216;51.090;-115.352;2023-02-28T07:37:05;2.50;;;0.80;;
76393;SDS011;65216;51.090;-115.352;2023-02-28T07:39:39;5.60;;;0.90;;
76393;SDS011;65216;51.090;-115.352;2023-02-28T07:42:08;1.60;;;0.70;;
76393;SDS011;65216;51.090;-115.352;2023-02-28T07:44:40;1.60;;;0.70;;
76393;SDS011;65216;51.090;-115.352;2023-02-28T07:47:09;2.70;;;0.80;;
76393;SDS011;65216;51.090;-115.352;2023-02-28T07:50:06;3.40;;;0.90;;
76393;SDS011;65216;51.090;-115.352;2023-02-28T07:52:36;3.10;;;0.70;;
76393;SDS011;65216;51.090;-115.352;2023-02-28T07:55:07;3.20;;;0.80;;
76393;SDS011;65216;51.090;-115.352;2023-02-28T07:57:36;3.00;;;1.00;;
76393;SDS011;65216;51.090;-115.352;2023-02-28T08:00:05;2.20;;;0.80;;
76393;SDS011;65216;51.090;-115.352;2023-02-28T08:02:39;5.00;;;1.00;;
76393;SDS011;65216;51.090;-115.352;2023-02-28T08:05:07;2.10;;;0.70;;
76393;SDS011;65216;51.090;-115.352;2023-02-28T08:07:38;2.10;;;0.70;;
76393;SDS011;65216;51.090;-115.352;2023-02-28T08:10:08;2.30;;;0.80;;
76393;SDS011;65216;51.090;-115.352;2023-02-28T08:12:36;2.00;;;0.60;;
76393;SDS011;65216;51.090;-115.352;2023-02-28T08:15:06;1.70;;;0.50;;
76393;SDS011;65216;51.090;-115.352;2023-02-28T08:17:37;2.80;;;0.60;;
76393;SDS011;65216;51.090;-115.352;2023-02-28T08:20:05;2.90;;;0.80;;
76393;SDS011;65216;51.090;-115.352;2023-02-28T08:22:35;1.70;;;0.70;;
76393;SDS011;65216;51.090;-115.352;2023-02-28T08:25:05;4.00;;;0.70;;
76393;SDS011;65216;51.090;-115.352;2023-02-28T08:27:33;1.80;;;0.70;;
76393;SDS011;65216;51.090;-115.352;2023-02-28T08:30:04;2.40;;;0.60;;
76393;SDS011;65216;51.090;-115.352;2023-02-28T08:32:33;2.00;;;0.70;;
76393;SDS011;65216;51.090;-115.352;2023-02-28T08:35:03;1.60;;;0.70;;
76393;SDS011;65216;51.090;-115.352;2023-02-28T08:37:35;1.10;;;0.60;;
76393;SDS011;65216;51.090;-115.352;2023-02-28T08:40:03;1.70;;;0.50;;
76393;SDS011;65216;51.090;-115.352;2023-02-28T08:42:32;1.70;;;0.50;;
76393;SDS011;65216;51.090;-115.352;2023-02-28T08:44:59;2.40;;;0.50;;
76393;SDS011;65216;51.090;-115.352;2023-02-28T08:47:27;2.50;;;0.50;;
76393;SDS011;65216;51.090;-115.352;2023-02-28T08:49:54;1.90;;;0.60;;
76393;SDS011;65216;51.090;-115.352;2023-02-28T08:52:21;0.50;;;0.30;;
76393;SDS011;65216;51.090;-115.352;2023-02-28T08:54:49;0.70;;;0.40;;
76393;SDS011;65216;51.090;-115.352;2023-02-28T08:57:16;2.20;;;0.60;;
76393;SDS011;65216;51.090;-115.352;2023-02-28T08:59:46;1.30;;;0.60;;
76393;SDS011;65216;51.090;-115.352;2023-02-28T09:02:14;0.80;;;0.30;;
76393;SDS011;65216;51.090;-115.352;2023-02-28T09:04:44;1.80;;;0.50;;
76393;SDS011;65216;51.090;-115.352;2023-02-28T09:07:12;1.70;;;0.50;;
76393;SDS011;65216;51.090;-115.352;2023-02-28T09:09:39;1.30;;;0.50;;
76393;SDS011;65216;51.090;-115.352;2023-02-28T09:12:23;0.80;;;0.40;;
76393;SDS011;65216;51.090;-115.352;2023-02-28T09:14:51;1.40;;;0.50;;
76393;SDS011;65216;51.090;-115.352;2023-02-28T09:17:21;1.60;;;0.60;;
76393;SDS011;65216;51.090;-115.352;2023-02-28T09:19:49;1.20;;;0.70;;
76393;SDS011;65216;51.090;-115.352;2023-02-28T09:22:19;1.20;;;0.40;;
76393;SDS011;65216;51.090;-115.352;2023-02-28T09:24:47;1.00;;;0.40;;
76393;SDS011;65216;51.090;-115.352;2023-02-28T09:27:14;1.60;;;0.50;;
76393;SDS011;65216;51.090;-115.352;2023-02-28T09:29:42;1.40;;;0.50;;
76393;SDS011;65216;51.090;-115.352;2023-02-28T09:32:09;0.40;;;0.20;;
76393;SDS011;65216;51.090;-115.352;2023-02-28T09:34:37;0.70;;;0.30;;
76393;SDS011;65216;51.090;-115.352;2023-02-28T09:37:05;1.10;;;0.50;;
76393;SDS011;65216;51.090;-115.352;2023-02-28T09:39:32;0.70;;;0.40;;
76393;SDS011;65216;51.090;-115.352;2023-02-28T09:42:00;2.10;;;0.50;;
76393;SDS011;65216;51.090;-115.352;2023-02-28T09:45:05;0.60;;;0.40;;
76393;SDS011;65216;51.090;-115.352;2023-02-28T09:47:41;0.90;;;0.30;;
76393;SDS011;65216;51.090;-115.352;2023-02-28T09:50:53;1.10;;;0.40;;
76393;SDS011;65216;51.090;-115.352;2023-02-28T09:53:34;1.10;;;0.50;;
76393;SDS011;65216;51.090;-115.352;2023-02-28T10:07:56;1.10;;;0.40;;
76393;SDS011;65216;51.090;-115.352;2023-02-28T10:10:37;0.90;;;0.30;;
76393;SDS011;65216;51.090;-115.352;2023-02-28T10:13:32;0.80;;;0.40;;
76393;SDS011;65216;51.090;-115.352;2023-02-28T10:16:39;0.90;;;0.40;;
76393;SDS011;65216;51.090;-115.352;2023-02-28T10:25:19;0.60;;;0.30;;
76393;SDS011;65216;51.090;-115.352;2023-02-28T10:28:13;1.20;;;0.40;;
76393;SDS011;65216;51.090;-115.352;2023-02-28T10:30:50;1.20;;;0.50;;
76393;SDS011;65216;51.090;-115.352;2023-02-28T10:35:57;0.50;;;0.20;;
76393;SDS011;65216;51.090;-115.352;2023-02-28T10:38:33;0.80;;;0.40;;
76393;SDS011;65216;51.090;-115.352;2023-02-28T10:41:13;0.70;;;0.30;;
76393;SDS011;65216;51.090;-115.352;2023-02-28T10:43:43;0.50;;;0.30;;
76393;SDS011;65216;51.090;-115.352;2023-02-28T10:46:34;0.50;;;0.30;;
76393;SDS011;65216;51.090;-115.352;2023-02-28T10:49:05;0.60;;;0.30;;
76393;SDS011;65216;51.090;-115.352;2023-02-28T10:51:40;1.00;;;0.40;;
76393;SDS011;65216;51.090;-115.352;2023-02-28T10:54:40;0.70;;;0.30;;
76393;SDS011;65216;51.090;-115.352;2023-02-28T10:57:23;0.40;;;0.20;;
76393;SDS011;65216;51.090;-115.352;2023-02-28T10:59:52;0.90;;;0.30;;
76393;SDS011;65216;51.090;-115.352;2023-02-28T11:02:36;1.00;;;0.40;;
76393;SDS011;65216;51.090;-115.352;2023-02-28T11:05:31;0.50;;;0.30;;
76393;SDS011;65216;51.090;-115.352;2023-02-28T11:08:12;0.50;;;0.20;;
76393;SDS011;65216;51.090;-115.352;2023-02-28T11:10:48;0.30;;;0.30;;
76393;SDS011;65216;51.090;-115.352;2023-02-28T11:13:37;1.40;;;0.30;;
76393;SDS011;65216;51.090;-115.352;2023-02-28T11:16:09;0.70;;;0.40;;
76393;SDS011;65216;51.090;-115.352;2023-02-28T11:18:52;0.50;;;0.30;;
76393;SDS011;65216;51.090;-115.352;2023-02-28T11:24:30;1.00;;;0.50;;
76393;SDS011;65216;51.090;-115.352;2023-02-28T11:27:06;0.80;;;0.40;;
76393;SDS011;65216;51.090;-115.352;2023-02-28T11:32:21;0.50;;;0.30;;
76393;SDS011;65216;51.090;-115.352;2023-02-28T11:35:14;0.50;;;0.20;;
76393;SDS011;65216;51.090;-115.352;2023-02-28T11:37:43;0.60;;;0.30;;
76393;SDS011;65216;51.090;-115.352;2023-02-28T11:40:17;0.40;;;0.20;;
76393;SDS011;65216;51.090;-115.352;2023-02-28T11:55:49;0.80;;;0.50;;
76393;SDS011;65216;51.090;-115.352;2023-02-28T12:01:02;0.60;;;0.30;;
76393;SDS011;65216;51.090;-115.352;2023-02-28T12:27:02;0.40;;;0.20;;
76393;SDS011;65216;51.090;-115.352;2023-02-28T12:29:43;0.80;;;0.30;;
76393;SDS011;65216;51.090;-115.352;2023-02-28T12:32:26;0.20;;;0.20;;
76393;SDS011;65216;51.090;-115.352;2023-02-28T12:35:13;1.20;;;0.40;;
76393;SDS011;65216;51.090;-115.352;2023-02-28T12:38:05;0.70;;;0.30;;
76393;SDS011;65216;51.090;-115.352;2023-02-28T12:44:34;0.40;;;0.30;;
76393;SDS011;65216;51.090;-115.352;2023-02-28T12:47:19;0.50;;;0.30;;
76393;SDS011;65216;51.090;-115.352;2023-02-28T12:50:10;0.60;;;0.40;;
76393;SDS011;65216;51.090;-115.352;2023-02-28T12:53:02;0.30;;;0.20;;
76393;SDS011;65216;51.090;-115.352;2023-02-28T13:09:56;0.60;;;0.20;;
76393;SDS011;65216;51.090;-115.352;2023-02-28T13:12:26;0.60;;;0.40;;
76393;SDS011;65216;51.090;-115.352;2023-02-28T13:15:08;0.50;;;0.20;;
76393;SDS011;65216;51.090;-115.352;2023-02-28T13:17:39;0.70;;;0.30;;
76393;SDS011;65216;51.090;-115.352;2023-02-28T13:20:21;0.80;;;0.30;;
76393;SDS011;65216;51.090;-115.352;2023-02-28T13:22:53;1.50;;;0.30;;
76393;SDS011;65216;51.090;-115.352;2023-02-28T13:28:08;0.60;;;0.30;;
76393;SDS011;65216;51.090;-115.352;2023-02-28T13:36:21;1.00;;;0.30;;
76393;SDS011;65216;51.090;-115.352;2023-02-28T13:44:11;0.90;;;0.40;;
76393;SDS011;65216;51.090;-115.352;2023-02-28T14:04:53;1.60;;;0.40;;
76393;SDS011;65216;51.090;-115.352;2023-02-28T14:07:31;0.20;;;0.20;;
76393;SDS011;65216;51.090;-115.352;2023-02-28T14:10:32;0.40;;;0.30;;
76393;SDS011;65216;51.090;-115.352;2023-02-28T14:16:06;0.60;;;0.30;;
76393;SDS011;65216;51.090;-115.352;2023-02-28T14:18:41;1.80;;;0.30;;
76393;SDS011;65216;51.090;-115.352;2023-02-28T14:21:38;0.70;;;0.40;;
76393;SDS011;65216;51.090;-115.352;2023-02-28T14:24:22;2.60;;;0.30;;
76393;SDS011;65216;51.090;-115.352;2023-02-28T14:30:36;2.10;;;0.40;;
76393;SDS011;65216;51.090;-115.352;2023-02-28T14:33:41;1.30;;;0.30;;
76393;SDS011;65216;51.090;-115.352;2023-02-28T14:36:41;1.50;;;0.50;;
76393;SDS011;65216;51.090;-115.352;2023-02-28T14:39:17;2.40;;;0.60;;
76393;SDS011;65216;51.090;-115.352;2023-02-28T14:41:54;0.80;;;0.40;;
76393;SDS011;65216;51.090;-115.352;2023-02-28T14:44:25;2.00;;;0.40;;
76393;SDS011;65216;51.090;-115.352;2023-02-28T14:46:59;1.00;;;0.30;;
76393;SDS011;65216;51.090;-115.352;2023-02-28T14:49:44;2.30;;;0.60;;
76393;SDS011;65216;51.090;-115.352;2023-02-28T14:52:19;2.90;;;0.60;;
76393;SDS011;65216;51.090;-115.352;2023-02-28T14:54:57;2.10;;;0.60;;
76393;SDS011;65216;51.090;-115.352;2023-02-28T14:57:51;2.00;;;0.50;;
76393;SDS011;65216;51.090;-115.352;2023-02-28T15:02:57;3.00;;;0.50;;
76393;SDS011;65216;51.090;-115.352;2023-02-28T15:05:33;1.70;;;0.40;;
76393;SDS011;65216;51.090;-115.352;2023-02-28T15:08:13;1.60;;;0.50;;
76393;SDS011;65216;51.090;-115.352;2023-02-28T15:10:56;1.50;;;0.40;;
76393;SDS011;65216;51.090;-115.352;2023-02-28T15:13:45;1.90;;;0.50;;
76393;SDS011;65216;51.090;-115.352;2023-02-28T15:21:37;1.00;;;0.50;;
76393;SDS011;65216;51.090;-115.352;2023-02-28T15:26:56;0.60;;;0.30;;
76393;SDS011;65216;51.090;-115.352;2023-02-28T15:29:28;2.10;;;0.50;;
76393;SDS011;65216;51.090;-115.352;2023-02-28T15:32:07;1.60;;;0.50;;
76393;SDS011;65216;51.090;-115.352;2023-02-28T15:34:48;1.30;;;0.50;;
76393;SDS011;65216;51.090;-115.352;2023-02-28T15:37:30;2.40;;;0.50;;
76393;SDS011;65216;51.090;-115.352;2023-02-28T15:40:36;3.80;;;0.80;;
76393;SDS011;65216;51.090;-115.352;2023-02-28T15:43:15;4.10;;;0.60;;
76393;SDS011;65216;51.090;-115.352;2023-02-28T15:48:24;2.70;;;0.50;;
76393;SDS011;65216;51.090;-115.352;2023-02-28T15:56:52;2.90;;;0.50;;
76393;SDS011;65216;51.090;-115.352;2023-02-28T15:59:28;4.40;;;0.80;;
76393;SDS011;65216;51.090;-115.352;2023-02-28T16:02:16;5.60;;;0.90;;
76393;SDS011;65216;51.090;-115.352;2023-02-28T16:07:39;6.80;;;0.80;;
76393;SDS011;65216;51.090;-115.352;2023-02-28T16:10:11;5.60;;;0.80;;
76393;SDS011;65216;51.090;-115.352;2023-02-28T16:12:42;3.50;;;0.60;;
76393;SDS011;65216;51.090;-115.352;2023-02-28T16:17:49;6.10;;;0.90;;
76393;SDS011;65216;51.090;-115.352;2023-02-28T16:20:27;6.50;;;1.10;;
76393;SDS011;65216;51.090;-115.352;2023-02-28T16:23:03;6.20;;;0.80;;
76393;SDS011;65216;51.090;-115.352;2023-02-28T16:25:40;7.60;;;0.90;;
76393;SDS011;65216;51.090;-115.352;2023-02-28T16:28:22;7.80;;;1.20;;
76393;SDS011;65216;51.090;-115.352;2023-02-28T16:30:56;7.70;;;1.10;;
76393;SDS011;65216;51.090;-115.352;2023-02-28T16:33:25;5.70;;;0.80;;
76393;SDS011;65216;51.090;-115.352;2023-02-28T16:35:53;7.80;;;1.00;;
76393;SDS011;65216;51.090;-115.352;2023-02-28T16:38:20;8.40;;;1.10;;
76393;SDS011;65216;51.090;-115.352;2023-02-28T16:40:50;12.20;;;1.30;;
76393;SDS011;65216;51.090;-115.352;2023-02-28T16:43:24;9.30;;;1.10;;
76393;SDS011;65216;51.090;-115.352;2023-02-28T16:45:58;10.30;;;1.10;;
76393;SDS011;65216;51.090;-115.352;2023-02-28T16:48:27;7.00;;;0.90;;
76393;SDS011;65216;51.090;-115.352;2023-02-28T16:50:58;10.10;;;1.10;;
76393;SDS011;65216;51.090;-115.352;2023-02-28T16:53:25;10.50;;;1.30;;
76393;SDS011;65216;51.090;-115.352;2023-02-28T16:55:53;7.80;;;1.10;;
76393;SDS011;65216;51.090;-115.352;2023-02-28T16:58:21;6.60;;;0.90;;
76393;SDS011;65216;51.090;-115.352;2023-02-28T17:00:52;8.80;;;1.00;;
76393;SDS011;65216;51.090;-115.352;2023-02-28T17:03:23;11.20;;;1.20;;
76393;SDS011;65216;51.090;-115.352;2023-02-28T17:05:52;7.30;;;1.10;;
76393;SDS011;65216;51.090;-115.352;2023-02-28T17:08:23;11.50;;;1.00;;
76393;SDS011;65216;51.090;-115.352;2023-02-28T17:10:50;8.50;;;1.30;;
76393;SDS011;65216;51.090;-115.352;2023-02-28T17:13:20;5.80;;;1.10;;
76393;SDS011;65216;51.090;-115.352;2023-02-28T17:15:48;11.30;;;1.40;;
76393;SDS011;65216;51.090;-115.352;2023-02-28T17:18:18;11.20;;;1.40;;
76393;SDS011;65216;51.090;-115.352;2023-02-28T17:20:47;6.50;;;1.20;;
76393;SDS011;65216;51.090;-115.352;2023-02-28T17:23:15;12.20;;;1.20;;
76393;SDS011;65216;51.090;-115.352;2023-02-28T17:25:42;7.50;;;1.00;;
76393;SDS011;65216;51.090;-115.352;2023-02-28T17:28:20;8.70;;;1.20;;
76393;SDS011;65216;51.090;-115.352;2023-02-28T17:30:51;6.80;;;1.30;;
76393;SDS011;65216;51.090;-115.352;2023-02-28T17:33:18;13.40;;;1.40;;
76393;SDS011;65216;51.090;-115.352;2023-02-28T17:35:46;5.00;;;1.10;;
76393;SDS011;65216;51.090;-115.352;2023-02-28T17:38:18;5.00;;;1.00;;
76393;SDS011;65216;51.090;-115.352;2023-02-28T17:40:48;6.60;;;0.90;;
76393;SDS011;65216;51.090;-115.352;2023-02-28T17:43:16;10.80;;;1.20;;
76393;SDS011;65216;51.090;-115.352;2023-02-28T17:45:46;9.30;;;1.10;;
76393;SDS011;65216;51.090;-115.352;2023-02-28T17:48:13;5.30;;;1.30;;